createdAt,value
2022-11-15T00:00:21.421Z,18.20
2022-11-15T00:03:08.097Z,19.27
2022-11-15T00:05:55.899Z,19.53
2022-11-15T00:08:42.099Z,17.40
2022-11-15T00:11:28.964Z,18.23
2022-11-15T00:14:15.468Z,18.37
2022-11-15T00:17:01.655Z,17.07
2022-11-15T00:19:47.959Z,18.27
2022-11-15T00:22:35.941Z,17.97
2022-11-15T00:25:22.506Z,18.97
2022-11-15T00:28:08.930Z,18.00
2022-11-15T00:31:01.688Z,18.53
2022-11-15T00:33:48.119Z,16.00
2022-11-15T00:36:35.504Z,19.37
2022-11-15T00:39:23.575Z,17.60
2022-11-15T00:42:10.057Z,17.17
2022-11-15T00:44:56.565Z,16.53
2022-11-15T00:47:46.074Z,15.87
2022-11-15T00:50:32.621Z,17.83
2022-11-15T00:53:18.961Z,18.20
2022-11-15T00:56:07.407Z,16.77
2022-11-15T00:58:53.727Z,17.07
2022-11-15T01:01:40.076Z,15.90
2022-11-15T01:04:26.177Z,16.60
2022-11-15T01:07:12.965Z,17.57
2022-11-15T01:09:59.284Z,15.93
2022-11-15T01:12:47.267Z,17.13
2022-11-15T01:15:33.572Z,14.43
2022-11-15T01:18:19.769Z,15.87
2022-11-15T01:21:08.979Z,15.17
2022-11-15T01:23:56.146Z,14.80
2022-11-15T01:26:42.751Z,16.17
2022-11-15T01:29:30.535Z,14.80
2022-11-15T01:32:17.936Z,14.87
2022-11-15T01:35:05.321Z,15.33
2022-11-15T01:37:54.467Z,15.17
2022-11-15T01:40:42.082Z,16.10
2022-11-15T01:43:32.512Z,17.77
2022-11-15T01:46:35.538Z,16.30
2022-11-15T01:49:24.532Z,16.63
2022-11-15T01:52:17.274Z,15.90
2022-11-15T01:55:10.418Z,19.47
2022-11-15T01:58:02.704Z,18.00
2022-11-15T02:00:51.133Z,15.57
2022-11-15T02:03:47.968Z,14.77
2022-11-15T02:09:23.291Z,16.17
2022-11-15T02:12:14.587Z,16.70
2022-11-15T02:15:05.775Z,15.37
2022-11-15T02:18:11.615Z,15.70
2022-11-15T02:21:14.991Z,16.50
2022-11-15T02:24:44.915Z,15.33
2022-11-15T02:28:22.912Z,17.90
2022-11-15T02:31:19.199Z,15.05
2022-11-15T02:37:11.059Z,17.27
2022-11-15T02:40:11.851Z,16.67
2022-11-15T02:43:27.225Z,15.03
2022-11-15T02:46:44.422Z,16.10
2022-11-15T02:49:35.194Z,16.60
2022-11-15T02:52:27.033Z,16.47
2022-11-15T02:55:32.510Z,14.83
2022-11-15T02:58:58.333Z,15.30
2022-11-15T03:02:05.671Z,17.50
2022-11-15T03:04:59.155Z,17.70
2022-11-15T03:08:00.894Z,15.27
2022-11-15T03:11:03.910Z,15.93
2022-11-15T03:13:59.664Z,17.47
2022-11-15T03:16:59.521Z,15.57
2022-11-15T03:19:51.078Z,15.90
2022-11-15T03:22:43.505Z,15.30
2022-11-15T03:25:34.852Z,15.07
2022-11-15T03:28:29.210Z,14.90
2022-11-15T03:31:37.706Z,15.70
2022-11-15T03:34:33.514Z,18.23
2022-11-15T03:37:26.371Z,15.80
2022-11-15T03:40:13.857Z,14.53
2022-11-15T03:43:11.286Z,15.93
2022-11-15T03:46:04.547Z,14.20
2022-11-15T03:48:59.101Z,16.17
2022-11-15T03:51:47.167Z,13.67
2022-11-15T03:54:33.380Z,15.07
2022-11-15T03:57:19.837Z,16.80
2022-11-15T04:00:08.115Z,16.17
2022-11-15T04:02:54.884Z,17.50
2022-11-15T04:05:41.269Z,15.07
2022-11-15T04:08:29.353Z,14.97
2022-11-15T04:11:15.856Z,14.47
2022-11-15T04:14:02.206Z,15.87
2022-11-15T04:16:48.797Z,16.63
2022-11-15T04:19:53.572Z,15.73
2022-11-15T04:22:58.981Z,13.50
2022-11-15T04:25:51.135Z,13.60
2022-11-15T04:29:01.337Z,13.70
2022-11-15T04:31:47.671Z,15.57
2022-11-15T04:34:35.199Z,15.10
2022-11-15T04:37:21.821Z,15.30
2022-11-15T04:40:09.849Z,16.67
2022-11-15T04:43:03.584Z,13.33
2022-11-15T04:45:50.263Z,12.60
2022-11-15T04:48:36.815Z,12.13
2022-11-15T04:51:23.175Z,13.33
2022-11-15T04:54:09.720Z,13.90
2022-11-15T04:56:56.082Z,15.27
2022-11-15T04:59:43.653Z,13.60
2022-11-15T05:02:49.915Z,12.90
2022-11-15T05:05:36.763Z,11.90
2022-11-15T05:08:23.495Z,13.97
2022-11-15T05:11:10.197Z,14.97
2022-11-15T05:13:56.641Z,12.23
2022-11-15T05:16:44.300Z,14.10
2022-11-15T05:19:30.741Z,12.57
2022-11-15T05:22:18.079Z,15.37
2022-11-15T05:25:06.368Z,14.23
2022-11-15T05:27:53.821Z,15.97
2022-11-15T05:30:40.301Z,13.37
2022-11-15T05:33:28.240Z,12.63
2022-11-15T05:36:23.790Z,12.23
2022-11-15T05:39:10.248Z,13.77
2022-11-15T05:42:03.939Z,13.23
2022-11-15T05:44:50.976Z,13.27
2022-11-15T05:47:40.278Z,13.70
2022-11-15T05:50:28.803Z,13.80
2022-11-15T05:53:20.448Z,13.00
2022-11-15T05:56:08.979Z,13.83
2022-11-15T05:58:59.676Z,14.07
2022-11-15T06:01:46.541Z,16.73
2022-11-15T06:04:33.041Z,13.60
2022-11-15T06:07:20.865Z,13.93
2022-11-15T06:10:09.303Z,12.80
2022-11-15T06:13:00.007Z,12.53
2022-11-15T06:15:46.518Z,14.30
2022-11-15T06:18:35.602Z,13.27
2022-11-15T06:21:21.928Z,14.98
2022-11-15T06:24:15.235Z,13.77
2022-11-15T06:27:01.745Z,14.17
2022-11-15T06:29:48.306Z,14.27
2022-11-15T06:32:34.618Z,13.20
2022-11-15T06:35:20.940Z,11.93
2022-11-15T06:38:10.678Z,14.20
2022-11-15T06:41:05.152Z,13.30
2022-11-15T06:43:51.451Z,14.83
2022-11-15T06:46:37.787Z,14.63
2022-11-15T06:49:23.985Z,15.53
2022-11-15T06:52:10.198Z,16.53
2022-11-15T06:54:56.287Z,19.33
2022-11-15T06:57:50.411Z,19.53
2022-11-15T07:00:37.024Z,19.07
2022-11-15T07:03:23.200Z,18.93
2022-11-15T07:06:10.687Z,17.87
2022-11-15T07:08:57.304Z,16.53
2022-11-15T07:11:43.945Z,19.87
2022-11-15T07:14:31.607Z,16.83
2022-11-15T07:17:18.295Z,16.63
2022-11-15T07:20:06.345Z,18.47
2022-11-15T07:23:00.872Z,18.77
2022-11-15T07:25:46.963Z,17.73
2022-11-15T07:28:34.216Z,17.60
2022-11-15T07:31:23.300Z,15.87
2022-11-15T07:34:10.723Z,17.27
2022-11-15T07:36:57.324Z,17.03
2022-11-15T07:39:43.884Z,18.07
2022-11-15T07:42:50.838Z,18.87
2022-11-15T07:45:43.240Z,17.60
2022-11-15T07:48:42.864Z,19.43
2022-11-15T07:51:30.292Z,20.27
2022-11-15T07:54:16.644Z,18.43
2022-11-15T07:57:07.265Z,18.17
2022-11-15T07:59:54.530Z,17.60
2022-11-15T08:02:41.601Z,16.50
2022-11-15T08:05:29.336Z,14.87
2022-11-15T08:08:15.949Z,16.48
2022-11-15T08:11:02.358Z,15.13
2022-11-15T08:13:48.888Z,14.50
2022-11-15T08:16:35.432Z,14.47
2022-11-15T08:19:21.783Z,13.43
2022-11-15T08:22:09.856Z,12.83
2022-11-15T08:24:56.233Z,12.47
2022-11-15T08:27:42.805Z,11.97
2022-11-15T08:30:30.750Z,12.70
2022-11-15T08:33:16.932Z,12.60
2022-11-15T08:36:03.689Z,11.10
2022-11-15T08:38:51.571Z,10.60
2022-11-15T08:41:39.169Z,11.27
2022-11-15T08:44:25.753Z,9.63
2022-11-15T08:47:14.530Z,10.77
2022-11-15T08:50:01.352Z,10.20
2022-11-15T08:52:50.469Z,8.37
2022-11-15T08:55:39.595Z,9.93
2022-11-15T08:58:25.953Z,8.40
2022-11-15T09:01:18.717Z,8.00
2022-11-15T09:04:05.707Z,7.30
2022-11-15T09:06:52.433Z,7.50
2022-11-15T09:09:39.247Z,6.97
2022-11-15T09:12:26.987Z,5.82
2022-11-15T09:15:13.365Z,5.23
2022-11-15T09:18:00.416Z,4.87
2022-11-15T09:20:46.875Z,4.00
2022-11-15T09:23:33.483Z,5.35
2022-11-15T09:26:20.137Z,4.85
2022-11-15T09:29:07.625Z,4.87
2022-11-15T09:31:54.407Z,5.28
2022-11-15T09:34:40.576Z,3.88
2022-11-15T09:37:27.019Z,5.47
2022-11-15T09:40:18.324Z,3.00
2022-11-15T09:43:27.772Z,5.63
2022-11-15T09:46:25.416Z,3.58
2022-11-15T09:49:16.443Z,4.83
2022-11-15T09:52:03.679Z,3.60
2022-11-15T09:54:52.877Z,2.78
2022-11-15T09:57:31.293Z,4.35
2022-11-15T10:03:16.172Z,6.40
2022-11-15T10:05:47.060Z,3.10
2022-11-15T10:08:43.433Z,3.97
2022-11-15T10:14:14.076Z,2.63
2022-11-15T10:17:14.990Z,3.73
2022-11-15T10:20:01.091Z,1.90
2022-11-15T10:22:40.711Z,3.40
2022-11-15T10:27:55.511Z,3.17
2022-11-15T10:30:31.154Z,2.37
2022-11-15T10:32:59.022Z,2.17
2022-11-15T10:35:30.729Z,2.90
2022-11-15T10:38:07.726Z,2.00
2022-11-15T10:40:36.845Z,2.22
2022-11-15T10:43:16.046Z,2.47
2022-11-15T10:45:45.144Z,3.42
2022-11-15T10:48:25.940Z,2.30
2022-11-15T10:50:58.290Z,2.70
2022-11-15T10:53:42.939Z,3.15
2022-11-15T10:56:18.750Z,1.60
2022-11-15T10:58:54.341Z,1.00
2022-11-15T11:01:27.827Z,2.50
2022-11-15T11:04:01.914Z,3.28
2022-11-15T11:06:46.663Z,2.80
2022-11-15T11:09:29.819Z,3.35
2022-11-15T11:11:57.904Z,2.67
2022-11-15T11:14:32.266Z,1.38
2022-11-15T11:17:14.147Z,2.00
2022-11-15T11:20:02.737Z,2.25
2022-11-15T11:22:43.220Z,2.15
2022-11-15T11:25:26.795Z,2.25
2022-11-15T11:28:19.738Z,2.60
2022-11-15T11:31:00.641Z,3.30
2022-11-15T11:33:34.744Z,1.80
2022-11-15T11:36:20.750Z,4.45
2022-11-15T11:39:09.710Z,2.65
2022-11-15T11:42:00.361Z,3.00
2022-11-15T11:44:49.984Z,3.80
2022-11-15T11:47:25.560Z,1.83
2022-11-15T11:50:03.103Z,2.63
2022-11-15T11:52:42.375Z,2.08
2022-11-15T11:55:20.891Z,2.78
2022-11-15T11:58:13.131Z,3.38
2022-11-15T12:00:47.995Z,3.65
2022-11-15T12:03:28.187Z,2.38
2022-11-15T12:06:03.524Z,2.42
2022-11-15T12:08:47.019Z,2.35
2022-11-15T12:11:24.098Z,3.35
2022-11-15T12:13:59.164Z,2.65
2022-11-15T12:16:32.971Z,3.85
2022-11-15T12:19:03.806Z,3.47
2022-11-15T12:21:46.678Z,2.63
2022-11-15T12:24:23.501Z,3.13
2022-11-15T12:27:05.614Z,3.80
2022-11-15T12:29:42.388Z,2.83
2022-11-15T12:32:26.946Z,3.30
2022-11-15T12:34:56.455Z,2.17
2022-11-15T12:37:58.210Z,1.88
2022-11-15T12:40:37.759Z,3.75
2022-11-15T12:43:43.367Z,2.30
2022-11-15T12:46:36.608Z,3.73
2022-11-15T12:49:24.994Z,2.30
2022-11-15T12:52:09.613Z,2.35
2022-11-15T12:55:35.017Z,2.35
2022-11-15T12:58:29.369Z,3.28
2022-11-15T13:00:59.022Z,3.05
2022-11-15T13:03:29.635Z,3.40
2022-11-15T13:06:41.029Z,4.10
2022-11-15T13:10:04.272Z,3.65
2022-11-15T13:13:03.561Z,1.90
2022-11-15T13:15:46.036Z,2.42
2022-11-15T13:18:35.845Z,1.40
2022-11-15T13:21:38.649Z,2.00
2022-11-15T13:24:14.654Z,2.85
2022-11-15T13:26:43.329Z,3.20
2022-11-15T13:29:21.552Z,1.85
2022-11-15T13:31:49.942Z,2.38
2022-11-15T13:34:50.952Z,3.08
2022-11-15T13:37:34.710Z,2.28
2022-11-15T13:40:24.403Z,2.35
2022-11-15T13:42:52.339Z,2.85
2022-11-15T13:45:21.327Z,3.10
2022-11-15T13:47:56.184Z,3.67
2022-11-15T13:50:32.749Z,1.52
2022-11-15T13:53:05.021Z,2.80
2022-11-15T13:55:34.175Z,2.83
2022-11-15T13:58:07.163Z,2.63
2022-11-15T14:00:39.881Z,1.95
2022-11-15T14:03:18.406Z,1.55
2022-11-15T14:06:04.671Z,1.88
2022-11-15T14:08:32.718Z,2.77
2022-11-15T14:11:15.821Z,3.23
2022-11-15T14:14:03.656Z,2.53
2022-11-15T14:16:37.470Z,2.83
2022-11-15T14:19:11.394Z,3.08
2022-11-15T14:22:12.395Z,2.55
2022-11-15T14:24:46.094Z,2.10
2022-11-15T14:27:29.187Z,3.93
2022-11-15T14:29:57.113Z,4.20
2022-11-15T14:32:28.754Z,4.75
2022-11-15T14:34:59.555Z,3.80
2022-11-15T14:37:35.521Z,2.58
2022-11-15T14:40:06.616Z,1.57
2022-11-15T14:42:34.533Z,2.20
2022-11-15T14:45:02.268Z,3.93
2022-11-15T14:47:30.198Z,3.38
2022-11-15T14:49:58.034Z,2.33
2022-11-15T14:52:32.983Z,2.28
2022-11-15T14:55:03.932Z,3.05
2022-11-15T14:57:34.451Z,2.73
2022-11-15T15:00:03.821Z,2.70
2022-11-15T15:02:43.141Z,3.65
2022-11-15T15:05:21.305Z,4.13
2022-11-15T15:07:52.475Z,3.23
2022-11-15T15:13:22.173Z,3.53
2022-11-15T15:15:51.914Z,2.30
2022-11-15T15:18:21.115Z,1.87
2022-11-15T15:21:04.175Z,2.30
2022-11-15T15:23:34.421Z,2.97
2022-11-15T15:26:02.307Z,2.03
2022-11-15T15:28:34.555Z,3.33
2022-11-15T15:31:03.303Z,2.93
2022-11-15T15:33:31.048Z,2.17
2022-11-15T15:35:59.357Z,1.60
2022-11-15T15:38:27.534Z,1.93
2022-11-15T15:40:56.734Z,2.63
2022-11-15T15:43:24.459Z,3.13
2022-11-15T15:45:52.320Z,2.80
2022-11-15T15:48:20.041Z,1.97
2022-11-15T15:50:48.272Z,3.27
2022-11-15T15:53:16.163Z,4.10
2022-11-15T15:55:43.942Z,2.50
2022-11-15T15:58:13.157Z,1.80
2022-11-15T16:00:41.114Z,2.57
2022-11-15T16:03:08.979Z,3.00
2022-11-15T16:05:36.781Z,6.60
2022-11-15T16:08:05.437Z,2.10
2022-11-15T16:10:35.316Z,3.33
2022-11-15T16:13:03.785Z,4.50
2022-11-15T16:15:33.741Z,2.17
2022-11-15T16:18:02.937Z,4.20
2022-11-15T16:20:35.519Z,3.47
2022-11-15T16:23:09.189Z,3.70
2022-11-15T16:25:43.696Z,2.30
2022-11-15T16:28:19.458Z,4.17
2022-11-15T16:30:55.596Z,2.33
2022-11-15T16:33:24.891Z,3.67
2022-11-15T16:35:52.750Z,2.77
2022-11-15T16:38:21.006Z,2.77
2022-11-15T16:40:49.010Z,4.27
2022-11-15T16:43:17.022Z,4.17
2022-11-15T16:45:44.949Z,4.30
2022-11-15T16:48:25.439Z,3.97
2022-11-15T16:50:57.235Z,2.87
2022-11-15T16:53:26.205Z,3.73
2022-11-15T16:55:55.650Z,4.10
2022-11-15T16:58:24.858Z,4.83
2022-11-15T17:00:53.489Z,5.33
2022-11-15T17:03:24.201Z,5.33
2022-11-15T17:05:52.398Z,2.70
2022-11-15T17:08:21.757Z,4.90
2022-11-15T17:10:49.844Z,6.53
2022-11-15T17:13:17.745Z,4.03
2022-11-15T17:15:45.512Z,3.60
2022-11-15T17:18:15.417Z,3.03
2022-11-15T17:20:44.721Z,3.77
2022-11-15T17:23:14.963Z,4.53
2022-11-15T17:25:42.912Z,4.17
2022-11-15T17:28:11.046Z,4.38
2022-11-15T17:30:42.996Z,5.07
2022-11-15T17:33:11.202Z,2.50
2022-11-15T17:35:39.098Z,3.20
2022-11-15T17:38:08.370Z,3.40
2022-11-15T17:40:36.293Z,3.70
2022-11-15T17:43:06.131Z,3.90
2022-11-15T17:45:34.151Z,4.60
2022-11-15T17:48:01.963Z,3.97
2022-11-15T17:50:29.775Z,3.08
2022-11-15T17:52:59.395Z,3.80
2022-11-15T17:55:28.573Z,3.73
2022-11-15T17:57:56.310Z,3.97
2022-11-15T18:00:24.408Z,4.53
2022-11-15T18:02:52.187Z,4.17
2022-11-15T18:05:19.941Z,4.67
2022-11-15T18:07:47.707Z,4.43
2022-11-15T18:10:17.115Z,3.90
2022-11-15T18:12:48.653Z,3.50
2022-11-15T18:15:21.269Z,3.23
2022-11-15T18:17:49.004Z,3.53
2022-11-15T18:20:17.161Z,4.60
2022-11-15T18:22:45.105Z,4.13
2022-11-15T18:25:15.787Z,3.20
2022-11-15T18:27:44.095Z,3.40
2022-11-15T18:30:14.046Z,3.87
2022-11-15T18:32:42.123Z,3.97
2022-11-15T18:35:10.178Z,7.20
2022-11-15T18:37:37.965Z,4.63
2022-11-15T18:40:07.801Z,6.20
2022-11-15T18:42:35.700Z,5.03
2022-11-15T18:45:04.557Z,4.17
2022-11-15T18:47:33.959Z,4.87
2022-11-15T18:50:01.878Z,4.47
2022-11-15T18:52:29.718Z,3.97
2022-11-15T18:54:57.655Z,5.47
2022-11-15T18:57:25.535Z,5.00
2022-11-15T18:59:53.379Z,3.57
2022-11-15T19:02:21.138Z,5.27
2022-11-15T19:04:50.372Z,4.30
2022-11-15T19:07:18.238Z,4.90
2022-11-15T19:09:46.604Z,4.10
2022-11-15T19:12:14.841Z,4.23
2022-11-15T19:14:42.601Z,4.53
2022-11-15T19:17:10.387Z,5.43
2022-11-15T19:19:38.224Z,5.07
2022-11-15T19:22:08.572Z,4.47
2022-11-15T19:24:36.423Z,5.63
2022-11-15T19:27:04.408Z,5.80
2022-11-15T19:29:32.217Z,5.17
2022-11-15T19:32:02.114Z,4.53
2022-11-15T19:34:30.197Z,5.73
2022-11-15T19:36:58.820Z,5.33
2022-11-15T19:39:30.763Z,5.03
2022-11-15T19:41:59.307Z,5.17
2022-11-15T19:44:28.320Z,5.30
2022-11-15T19:46:56.122Z,5.03
2022-11-15T19:49:24.015Z,6.37
2022-11-15T19:51:51.725Z,6.53
2022-11-15T19:54:19.627Z,6.67
2022-11-15T19:56:48.730Z,5.73
2022-11-15T19:59:17.270Z,5.37
2022-11-15T20:01:45.114Z,6.33
2022-11-15T20:04:12.850Z,4.97
2022-11-15T20:06:42.777Z,4.70
2022-11-15T20:09:14.022Z,5.40
2022-11-15T20:11:42.418Z,4.60
2022-11-15T20:14:12.924Z,6.43
2022-11-15T20:16:41.298Z,6.10
2022-11-15T20:19:09.591Z,5.70
2022-11-15T20:21:37.445Z,4.10
2022-11-15T20:24:08.028Z,5.10
2022-11-15T20:26:35.961Z,6.47
2022-11-15T20:29:03.907Z,5.93
2022-11-15T20:31:33.540Z,6.22
2022-11-15T20:34:01.474Z,4.27
2022-11-15T20:36:29.394Z,5.60
2022-11-15T20:38:59.156Z,5.68
2022-11-15T20:41:27.834Z,5.57
2022-11-15T20:43:55.929Z,7.00
2022-11-15T20:46:23.973Z,4.77
2022-11-15T20:48:53.291Z,5.60
2022-11-15T20:51:21.277Z,4.27
2022-11-15T20:53:49.965Z,4.23
2022-11-15T20:56:21.242Z,5.47
2022-11-15T20:58:50.514Z,4.33
2022-11-15T21:01:24.581Z,5.13
2022-11-15T21:03:55.890Z,5.77
2022-11-15T21:06:26.382Z,4.63
2022-11-15T21:09:14.144Z,6.33
2022-11-15T21:12:01.019Z,4.13
2022-11-15T21:14:28.879Z,5.63
2022-11-15T21:16:57.159Z,4.43
2022-11-15T21:19:31.370Z,4.80
2022-11-15T21:22:04.467Z,5.00
2022-11-15T21:24:32.567Z,4.73
2022-11-15T21:27:00.328Z,5.47
2022-11-15T21:29:36.209Z,4.30
2022-11-15T21:32:07.237Z,5.57
2022-11-15T21:34:36.731Z,4.35
2022-11-15T21:37:05.460Z,4.87
2022-11-15T21:39:33.607Z,5.33
2022-11-15T21:42:01.706Z,4.60
2022-11-15T21:44:29.562Z,5.87
2022-11-15T21:46:57.712Z,4.73
2022-11-15T21:49:25.837Z,4.77
2022-11-15T21:51:54.931Z,4.70
2022-11-15T21:54:22.756Z,5.50
2022-11-15T21:56:52.644Z,5.33
2022-11-15T21:59:20.620Z,5.77
2022-11-15T22:02:07.067Z,4.97
2022-11-15T22:04:35.067Z,6.27
2022-11-15T22:07:04.324Z,5.90
2022-11-15T22:09:34.430Z,5.93
2022-11-15T22:12:02.364Z,7.03
2022-11-15T22:14:30.267Z,7.23
2022-11-15T22:16:58.167Z,6.73
2022-11-15T22:19:26.185Z,6.13
2022-11-15T22:21:55.152Z,6.87
2022-11-15T22:24:24.269Z,6.80
2022-11-15T22:26:52.695Z,5.20
2022-11-15T22:29:20.547Z,5.50
2022-11-15T22:31:48.539Z,5.43
2022-11-15T22:34:16.518Z,5.77
2022-11-15T22:37:13.063Z,6.30
2022-11-15T22:39:35.047Z,6.03
2022-11-15T22:42:03.071Z,6.50
2022-11-15T22:44:30.852Z,7.10
2022-11-15T22:46:58.831Z,6.00
2022-11-15T22:49:26.880Z,6.60
2022-11-15T22:51:54.769Z,8.70
2022-11-15T22:54:22.842Z,9.17
2022-11-15T22:56:52.288Z,11.97
2022-11-15T22:59:20.011Z,11.77
2022-11-15T23:01:50.797Z,10.17
2022-11-15T23:04:18.654Z,9.23
2022-11-15T23:06:46.552Z,11.00
2022-11-15T23:09:14.430Z,15.50
2022-11-15T23:12:01.134Z,11.77
2022-11-15T23:14:30.561Z,11.73
2022-11-15T23:16:58.590Z,11.50
2022-11-15T23:19:26.658Z,11.50
2022-11-15T23:22:13.325Z,9.97
2022-11-15T23:24:41.372Z,12.63
2022-11-15T23:27:09.429Z,8.53
2022-11-15T23:29:57.318Z,6.37
2022-11-15T23:32:43.799Z,7.50
2022-11-15T23:35:11.809Z,8.80
2022-11-15T23:37:39.785Z,9.87
2022-11-15T23:40:10.015Z,9.90
2022-11-15T23:42:37.786Z,11.33
2022-11-15T23:45:09.726Z,10.17
2022-11-15T23:47:38.660Z,12.50
2022-11-15T23:50:08.116Z,11.77
2022-11-15T23:52:36.190Z,12.33
2022-11-15T23:55:05.091Z,11.57
2022-11-15T23:57:32.872Z,9.67
